Time;durP1;ratioP1;P1;durP2;ratioP2;P2;SDS_P1;SDS_P2;PMS_P1;PMS_P2;Temp;Humidity;BMP_temperature;BMP_pressure;BME280_temperature;BME280_humidity;BME280_pressure;Samples;Min_cycle;Max_cycle;Signal;HPM_P1;HPM_P2
2022/08/17 00:00:25;;;;;;;3.03;2.83;;;;;;;;;;4969907;28;20787;-65
2022/08/17 00:02:56;;;;;;;2.92;2.80;;;;;;;;;;4969272;28;20210;-65
2022/08/17 00:05:23;;;;;;;2.85;2.75;;;;;;;;;;4969784;28;20749;-65
2022/08/17 00:07:50;;;;;;;3.65;2.88;;;;;;;;;;4969401;28;20207;-65
2022/08/17 00:10:21;;;;;;;5.43;2.85;;;;;;;;;;4969455;28;20206;-65
2022/08/17 00:12:49;;;;;;;2.90;2.80;;;;;;;;;;4966762;28;20214;-65
2022/08/17 00:15:16;;;;;;;4.35;2.88;;;;;;;;;;4969768;28;20206;-65
2022/08/17 00:17:46;;;;;;;2.78;2.67;;;;;;;;;;4969388;28;20230;-65
2022/08/17 00:20:13;;;;;;;3.00;2.80;;;;;;;;;;4967461;28;20252;-66
2022/08/17 00:22:40;;;;;;;3.00;2.75;;;;;;;;;;4969250;28;20214;-65
2022/08/17 00:25:09;;;;;;;2.92;2.72;;;;;;;;;;4969520;28;20273;-66
2022/08/17 00:27:36;;;;;;;2.92;2.72;;;;;;;;;;4968988;28;20214;-66
2022/08/17 00:30:06;;;;;;;2.67;2.58;;;;;;;;;;4969671;28;20234;-66
2022/08/17 00:32:36;;;;;;;3.38;3.17;;;;;;;;;;4968990;28;20202;-66
2022/08/17 00:35:04;;;;;;;2.90;2.72;;;;;;;;;;4967153;28;20221;-65
2022/08/17 00:37:31;;;;;;;3.05;2.95;;;;;;;;;;4965593;28;20206;-66
2022/08/17 00:39:58;;;;;;;3.45;2.65;;;;;;;;;;4968892;28;20233;-66
2022/08/17 00:42:25;;;;;;;2.67;2.58;;;;;;;;;;4969055;28;20202;-66
2022/08/17 00:44:52;;;;;;;2.55;2.47;;;;;;;;;;4968901;28;20218;-66
2022/08/17 00:47:21;;;;;;;3.13;2.97;;;;;;;;;;4969451;28;20210;-66
2022/08/17 00:49:48;;;;;;;2.90;2.70;;;;;;;;;;4969346;28;20247;-66
2022/08/17 00:52:17;;;;;;;3.03;2.83;;;;;;;;;;4969284;28;20210;-66
2022/08/17 00:54:47;;;;;;;3.30;3.08;;;;;;;;;;4969152;28;20680;-67
2022/08/17 00:57:16;;;;;;;2.63;2.53;;;;;;;;;;4972396;28;20213;-67
2022/08/17 00:59:45;;;;;;;3.22;3.10;;;;;;;;;;4972862;28;20230;-66
2022/08/17 01:02:14;;;;;;;3.13;2.60;;;;;;;;;;4972740;28;20630;-65
2022/08/17 01:04:51;;;;;;;2.80;2.70;;;;;;;;;;4972660;28;20689;-66
2022/08/17 01:07:18;;;;;;;3.20;3.00;;;;;;;;;;4972163;28;20297;-66
2022/08/17 01:09:45;;;;;;;2.92;2.72;;;;;;;;;;4972280;28;20332;-66
2022/08/17 01:12:12;;;;;;;3.17;2.97;;;;;;;;;;4972460;28;20214;-66
2022/08/17 01:14:40;;;;;;;2.78;2.63;;;;;;;;;;4972254;28;20202;-66
2022/08/17 01:17:07;;;;;;;3.78;3.00;;;;;;;;;;4972513;28;20234;-65
2022/08/17 01:19:35;;;;;;;2.70;2.60;;;;;;;;;;4970658;28;20728;-66
2022/08/17 01:22:09;;;;;;;3.10;2.90;;;;;;;;;;4972415;28;20214;-66
2022/08/17 01:24:38;;;;;;;3.13;3.00;;;;;;;;;;4972542;28;20202;-66
2022/08/17 01:27:06;;;;;;;3.03;2.83;;;;;;;;;;4972569;28;20214;-66
2022/08/17 01:29:33;;;;;;;3.15;2.95;;;;;;;;;;4972888;28;20222;-66
2022/08/17 01:32:03;;;;;;;2.80;2.70;;;;;;;;;;4972005;28;20206;-66
2022/08/17 01:34:30;;;;;;;2.78;2.67;;;;;;;;;;4971906;28;20293;-66
2022/08/17 01:36:57;;;;;;;2.75;2.63;;;;;;;;;;4972536;28;20222;-66
2022/08/17 01:39:30;;;;;;;2.78;2.55;;;;;;;;;;4972648;28;20688;-66
2022/08/17 01:42:04;;;;;;;2.72;2.53;;;;;;;;;;4972153;28;20636;-66
2022/08/17 01:44:31;;;;;;;2.88;2.53;;;;;;;;;;4972188;28;20207;-66
2022/08/17 01:47:00;;;;;;;2.80;2.67;;;;;;;;;;4972123;28;20214;-66
2022/08/17 01:49:27;;;;;;;2.80;2.60;;;;;;;;;;4972259;28;20230;-66
2022/08/17 01:51:54;;;;;;;5.10;2.72;;;;;;;;;;4971988;28;20277;-66
2022/08/17 01:54:22;;;;;;;2.50;2.50;;;;;;;;;;4972049;28;20653;-66
2022/08/17 01:56:50;;;;;;;2.88;2.78;;;;;;;;;;4970707;28;20214;-66
2022/08/17 01:59:20;;;;;;;2.70;2.60;;;;;;;;;;4971855;28;20218;-66
2022/08/17 02:01:47;;;;;;;3.00;2.80;;;;;;;;;;4971654;28;20234;-66
2022/08/17 02:04:14;;;;;;;3.10;2.90;;;;;;;;;;4972002;28;20207;-66
2022/08/17 02:06:43;;;;;;;3.60;2.90;;;;;;;;;;4972007;28;20211;-66
2022/08/17 02:09:10;;;;;;;3.00;2.90;;;;;;;;;;4970235;28;20297;-65
2022/08/17 02:11:38;;;;;;;2.70;2.60;;;;;;;;;;4971259;28;20202;-66
2022/08/17 02:14:06;;;;;;;5.60;2.40;;;;;;;;;;4971600;28;20210;-66
2022/08/17 02:16:35;;;;;;;2.70;2.60;;;;;;;;;;4971941;28;20206;-65
2022/08/17 02:19:02;;;;;;;2.55;2.35;;;;;;;;;;4984629;28;20253;-65
2022/08/17 02:21:30;;;;;;;3.03;2.83;;;;;;;;;;4971465;28;20233;-66
2022/08/17 02:23:57;;;;;;;3.00;2.80;;;;;;;;;;4979137;28;20220;-65
2022/08/17 02:26:24;;;;;;;3.67;3.38;;;;;;;;;;4970823;28;20795;-65
2022/08/17 02:28:51;;;;;;;2.60;2.50;;;;;;;;;;4971176;28;20289;-65
2022/08/17 02:31:18;;;;;;;3.17;2.90;;;;;;;;;;4971568;28;20221;-65
2022/08/17 02:33:46;;;;;;;3.00;2.83;;;;;;;;;;4971399;28;20359;-66
2022/08/17 02:36:14;;;;;;;2.97;2.63;;;;;;;;;;4974055;28;20202;-65
2022/08/17 02:38:41;;;;;;;3.33;2.90;;;;;;;;;;4971479;28;20218;-66
2022/08/17 02:41:09;;;;;;;3.08;2.70;;;;;;;;;;4971003;28;20234;-66
2022/08/17 02:46:40;;;;;;;2.95;2.85;;;;;;;;;;4967744;28;20224;-66
2022/08/17 02:49:08;;;;;;;2.95;2.70;;;;;;;;;;4970823;28;20214;-65
2022/08/17 02:51:35;;;;;;;2.85;2.67;;;;;;;;;;4970835;28;20253;-66
2022/08/17 02:54:02;;;;;;;2.80;2.70;;;;;;;;;;4970678;28;20210;-65
2022/08/17 02:56:29;;;;;;;5.43;2.85;;;;;;;;;;4970223;28;20214;-66
2022/08/17 02:58:57;;;;;;;2.92;2.72;;;;;;;;;;4970403;28;20677;-66
2022/08/17 03:01:24;;;;;;;2.88;2.78;;;;;;;;;;4970806;28;20241;-67
2022/08/17 03:03:51;;;;;;;2.88;2.78;;;;;;;;;;4971017;28;20210;-66
2022/08/17 03:06:20;;;;;;;2.40;2.30;;;;;;;;;;4970994;28;20206;-65
2022/08/17 03:08:47;;;;;;;2.55;2.45;;;;;;;;;;4970493;28;20202;-64
2022/08/17 03:11:15;;;;;;;2.45;2.42;;;;;;;;;;4969604;28;20784;-65
2022/08/17 03:13:42;;;;;;;3.42;2.83;;;;;;;;;;4964842;28;20202;-66
2022/08/17 03:16:09;;;;;;;2.45;2.45;;;;;;;;;;4968966;28;20210;-65
2022/08/17 03:18:36;;;;;;;3.05;2.65;;;;;;;;;;4968687;28;20245;-65
2022/08/17 03:21:03;;;;;;;2.40;2.30;;;;;;;;;;4968775;28;20254;-65
2022/08/17 03:23:32;;;;;;;2.85;2.70;;;;;;;;;;4968252;28;20294;-65
2022/08/17 03:25:59;;;;;;;2.53;2.50;;;;;;;;;;4968824;28;20218;-65
2022/08/17 03:28:28;;;;;;;2.80;2.70;;;;;;;;;;4968593;28;20198;-65
2022/08/17 03:30:55;;;;;;;2.85;2.75;;;;;;;;;;4969009;28;20209;-64
2022/08/17 03:33:22;;;;;;;2.60;2.50;;;;;;;;;;4968575;28;20214;-65
2022/08/17 03:35:49;;;;;;;2.80;2.60;;;;;;;;;;4968591;28;20677;-65
2022/08/17 03:38:16;;;;;;;3.20;3.00;;;;;;;;;;4968547;28;20635;-64
2022/08/17 03:40:45;;;;;;;2.85;2.75;;;;;;;;;;4968036;28;20804;-65
2022/08/17 03:43:13;;;;;;;2.95;2.75;;;;;;;;;;4968413;28;20210;-64
2022/08/17 03:56:43;;;;;;;2.72;2.63;;;;;;;;;;4967796;28;20304;-65
2022/08/17 03:59:11;;;;;;;2.28;2.17;;;;;;;;;;4967964;28;20214;-65
2022/08/17 04:01:39;;;;;;;2.70;2.60;;;;;;;;;;4966835;28;20775;-65
2022/08/17 04:04:06;;;;;;;2.85;2.75;;;;;;;;;;4968303;28;20207;-65
2022/08/17 04:06:33;;;;;;;3.10;2.90;;;;;;;;;;4968082;28;20217;-65
2022/08/17 04:09:00;;;;;;;8.10;2.92;;;;;;;;;;4968146;28;20216;-64
2022/08/17 04:11:27;;;;;;;2.80;2.70;;;;;;;;;;4967912;28;20215;-64
2022/08/17 04:13:56;;;;;;;2.80;2.70;;;;;;;;;;4968696;28;20277;-65
2022/08/17 04:16:26;;;;;;;2.53;2.50;;;;;;;;;;4966709;28;20251;-65
2022/08/17 04:18:54;;;;;;;2.55;2.45;;;;;;;;;;4953513;28;20217;-65
2022/08/17 04:21:21;;;;;;;2.85;2.70;;;;;;;;;;4968557;28;20229;-65
2022/08/17 04:23:48;;;;;;;2.80;2.70;;;;;;;;;;4968436;28;20212;-65
2022/08/17 04:26:16;;;;;;;3.10;2.65;;;;;;;;;;4966729;28;20218;-65
2022/08/17 04:28:43;;;;;;;2.75;2.53;;;;;;;;;;4967999;28;20659;-65
2022/08/17 04:31:13;;;;;;;2.58;2.47;;;;;;;;;;4970771;28;20206;-65
2022/08/17 04:33:42;;;;;;;2.55;2.45;;;;;;;;;;4971988;28;20210;-66
2022/08/17 04:36:11;;;;;;;2.42;2.33;;;;;;;;;;4971754;28;20684;-65
2022/08/17 04:38:38;;;;;;;2.58;2.47;;;;;;;;;;4971370;28;20222;-64
2022/08/17 04:43:54;;;;;;;2.67;2.47;;;;;;;;;;4972141;28;20198;-65
2022/08/17 04:46:24;;;;;;;2.40;2.30;;;;;;;;;;4972006;28;20704;-65
2022/08/17 04:48:52;;;;;;;2.38;2.28;;;;;;;;;;4971549;28;20209;-65
2022/08/17 04:51:20;;;;;;;3.63;2.35;;;;;;;;;;4971911;28;20202;-64
2022/08/17 04:53:50;;;;;;;2.45;2.40;;;;;;;;;;4972166;28;20229;-66
2022/08/17 04:56:17;;;;;;;3.10;3.00;;;;;;;;;;4970672;28;20305;-65
2022/08/17 04:58:45;;;;;;;3.08;2.88;;;;;;;;;;4970607;28;20214;-65
2022/08/17 05:01:12;;;;;;;2.95;2.72;;;;;;;;;;4970824;28;20357;-65
2022/08/17 05:03:41;;;;;;;2.80;2.60;;;;;;;;;;4969994;28;20206;-65
2022/08/17 05:06:08;;;;;;;2.85;2.60;;;;;;;;;;4967057;28;20318;-65
2022/08/17 05:08:35;;;;;;;2.63;2.55;;;;;;;;;;4970114;28;20346;-65
2022/08/17 05:11:02;;;;;;;2.72;2.63;;;;;;;;;;4969564;28;20241;-65
2022/08/17 05:13:29;;;;;;;2.85;2.75;;;;;;;;;;4970404;28;20532;-65
2022/08/17 05:15:57;;;;;;;3.72;3.00;;;;;;;;;;4970240;28;20229;-65
2022/08/17 05:18:24;;;;;;;2.95;2.85;;;;;;;;;;4969726;28;20230;-65
2022/08/17 05:20:53;;;;;;;2.85;2.65;;;;;;;;;;4969089;28;20908;-64
2022/08/17 05:23:20;;;;;;;2.70;2.60;;;;;;;;;;4969770;28;20848;-65
2022/08/17 05:25:48;;;;;;;3.53;2.47;;;;;;;;;;4969591;28;20218;-65
2022/08/17 05:28:15;;;;;;;2.50;2.38;;;;;;;;;;4969374;28;20229;-65
2022/08/17 05:30:42;;;;;;;2.78;2.60;;;;;;;;;;4969770;28;20261;-65
2022/08/17 05:33:10;;;;;;;2.47;2.38;;;;;;;;;;4969603;28;20302;-66
2022/08/17 05:35:41;;;;;;;2.50;2.50;;;;;;;;;;4968827;28;20214;-65
2022/08/17 05:38:09;;;;;;;2.47;2.38;;;;;;;;;;4969439;28;20450;-65
2022/08/17 05:40:39;;;;;;;2.67;2.63;;;;;;;;;;4969383;28;20214;-66
2022/08/17 05:43:07;;;;;;;2.70;2.50;;;;;;;;;;4970993;28;20207;-65
2022/08/17 05:45:35;;;;;;;2.88;2.78;;;;;;;;;;4970630;28;20284;-66
2022/08/17 05:48:02;;;;;;;2.92;2.63;;;;;;;;;;4971212;28;20638;-66
2022/08/17 05:50:34;;;;;;;2.58;2.28;;;;;;;;;;4970268;28;20206;-66
2022/08/17 05:53:03;;;;;;;3.22;2.13;;;;;;;;;;4970680;28;20232;-66
2022/08/17 05:55:35;;;;;;;2.80;2.60;;;;;;;;;;4970276;28;20681;-66
2022/08/17 05:58:09;;;;;;;2.47;2.47;;;;;;;;;;4970916;28;20301;-66
2022/08/17 06:00:42;;;;;;;2.70;2.60;;;;;;;;;;4970530;28;20213;-66
2022/08/17 06:03:15;;;;;;;2.60;2.40;;;;;;;;;;4970233;28;20226;-67
2022/08/17 06:05:53;;;;;;;2.60;2.50;;;;;;;;;;4969761;28;20268;-66
2022/08/17 06:08:23;;;;;;;3.05;2.75;;;;;;;;;;4969055;28;20768;-66
2022/08/17 06:10:58;;;;;;;3.22;3.03;;;;;;;;;;4969989;28;20210;-67
2022/08/17 06:13:30;;;;;;;2.50;2.40;;;;;;;;;;4969272;28;20206;-67
2022/08/17 06:16:01;;;;;;;2.95;2.85;;;;;;;;;;4970256;28;20210;-66
2022/08/17 06:18:31;;;;;;;3.10;2.90;;;;;;;;;;4969614;28;20257;-66
2022/08/17 06:21:00;;;;;;;3.90;2.90;;;;;;;;;;4970340;28;20238;-66
2022/08/17 06:23:30;;;;;;;2.92;2.72;;;;;;;;;;4969364;28;20255;-65
2022/08/17 06:26:02;;;;;;;3.30;3.20;;;;;;;;;;4968014;28;20940;-65
2022/08/17 06:28:31;;;;;;;2.58;2.47;;;;;;;;;;4969793;28;20225;-66
2022/08/17 06:31:02;;;;;;;3.00;2.90;;;;;;;;;;4969008;28;20218;-66
2022/08/17 06:33:32;;;;;;;3.00;2.90;;;;;;;;;;4969134;28;20206;-66
2022/08/17 06:36:03;;;;;;;2.95;2.85;;;;;;;;;;4966044;28;20226;-66
2022/08/17 06:38:40;;;;;;;3.78;3.05;;;;;;;;;;4969462;28;20205;-66
2022/08/17 06:41:11;;;;;;;3.00;2.90;;;;;;;;;;4966782;28;20217;-65
2022/08/17 06:43:47;;;;;;;3.35;3.20;;;;;;;;;;4968022;28;20214;-66
2022/08/17 06:46:17;;;;;;;3.47;3.28;;;;;;;;;;4964560;28;20309;-66
2022/08/17 06:48:47;;;;;;;5.22;3.10;;;;;;;;;;4968175;28;20310;-67
2022/08/17 06:51:17;;;;;;;3.25;3.15;;;;;;;;;;4967566;28;20353;-66
2022/08/17 06:53:47;;;;;;;3.40;3.30;;;;;;;;;;4967131;28;20210;-66
2022/08/17 06:56:21;;;;;;;3.40;3.25;;;;;;;;;;4967295;28;20209;-66
2022/08/17 06:58:48;;;;;;;3.58;3.40;;;;;;;;;;4968395;28;20653;-66
2022/08/17 07:01:17;;;;;;;3.17;3.08;;;;;;;;;;4966678;28;20198;-66
2022/08/17 07:03:54;;;;;;;3.72;3.00;;;;;;;;;;4968865;28;20683;-66
2022/08/17 07:06:21;;;;;;;3.63;3.42;;;;;;;;;;4964905;28;20306;-65
2022/08/17 07:08:54;;;;;;;3.38;3.28;;;;;;;;;;4968666;28;20715;-65
2022/08/17 07:11:26;;;;;;;3.50;3.38;;;;;;;;;;4969418;28;20210;-65
2022/08/17 07:13:57;;;;;;;3.80;3.60;;;;;;;;;;4967375;28;20305;-65
2022/08/17 07:16:26;;;;;;;3.90;3.70;;;;;;;;;;4967991;28;20384;-64
2022/08/17 07:18:53;;;;;;;3.70;3.50;;;;;;;;;;4967700;28;20213;-65
2022/08/17 07:21:26;;;;;;;4.22;3.78;;;;;;;;;;4967160;28;20214;-65
2022/08/17 07:24:00;;;;;;;4.07;3.88;;;;;;;;;;4966238;28;20707;-66
2022/08/17 07:26:28;;;;;;;4.22;3.92;;;;;;;;;;4967342;28;20309;-66
2022/08/17 07:28:56;;;;;;;3.67;3.55;;;;;;;;;;4967722;28;20225;-66
2022/08/17 07:31:24;;;;;;;4.20;4.00;;;;;;;;;;4968092;28;20294;-66
2022/08/17 07:34:02;;;;;;;4.20;3.80;;;;;;;;;;4968274;28;20278;-66
2022/08/17 07:36:32;;;;;;;4.07;3.67;;;;;;;;;;4968421;28;20248;-66
2022/08/17 07:39:00;;;;;;;3.83;3.63;;;;;;;;;;4966906;28;20269;-66
2022/08/17 07:41:29;;;;;;;3.60;3.35;;;;;;;;;;4967110;28;20206;-66
2022/08/17 07:43:57;;;;;;;3.80;3.58;;;;;;;;;;4967826;28;20214;-66
2022/08/17 07:49:21;;;;;;;6.18;3.95;;;;;;;;;;4966808;28;20213;-66
2022/08/17 07:51:56;;;;;;;4.20;4.00;;;;;;;;;;4967032;28;20209;-65
2022/08/17 07:54:24;;;;;;;3.92;3.78;;;;;;;;;;4966226;28;20297;-66
2022/08/17 07:56:54;;;;;;;4.25;3.85;;;;;;;;;;4967451;28;20198;-66
2022/08/17 07:59:22;;;;;;;3.83;3.65;;;;;;;;;;4967594;28;20630;-66
2022/08/17 08:02:02;;;;;;;4.20;3.83;;;;;;;;;;4967463;28;20366;-65
2022/08/17 08:04:33;;;;;;;4.75;4.35;;;;;;;;;;4967459;28;20225;-66
2022/08/17 08:07:01;;;;;;;4.80;3.78;;;;;;;;;;4966257;28;20214;-66
2022/08/17 08:09:29;;;;;;;3.78;3.58;;;;;;;;;;4967861;28;20206;-66
2022/08/17 08:11:59;;;;;;;4.18;3.88;;;;;;;;;;4968987;28;20639;-66
2022/08/17 08:14:28;;;;;;;5.20;4.63;;;;;;;;;;4967141;28;20206;-66
2022/08/17 08:16:59;;;;;;;5.22;4.85;;;;;;;;;;4966579;28;20390;-66
2022/08/17 08:19:27;;;;;;;4.85;4.55;;;;;;;;;;4968026;28;20721;-66
2022/08/17 08:21:58;;;;;;;5.20;4.90;;;;;;;;;;4967074;28;20249;-66
2022/08/17 08:24:45;;;;;;;5.05;4.53;;;;;;;;;;4966900;28;20293;-66
2022/08/17 08:27:20;;;;;;;7.00;4.20;;;;;;;;;;4966724;28;20202;-66
2022/08/17 08:29:51;;;;;;;5.20;4.80;;;;;;;;;;4967838;28;20206;-65
2022/08/17 08:32:20;;;;;;;5.38;4.82;;;;;;;;;;4966494;28;20225;-66
2022/08/17 08:34:49;;;;;;;4.85;4.47;;;;;;;;;;4968068;28;20210;-65
2022/08/17 08:37:20;;;;;;;5.05;4.65;;;;;;;;;;4967065;28;20212;-66
2022/08/17 08:39:50;;;;;;;5.70;5.20;;;;;;;;;;4968627;28;20202;-65
2022/08/17 08:42:22;;;;;;;4.90;4.50;;;;;;;;;;4967896;28;20222;-71
2022/08/17 08:44:54;;;;;;;6.03;5.28;;;;;;;;;;4962690;28;20622;-73
2022/08/17 08:47:29;;;;;;;6.10;5.38;;;;;;;;;;4968245;28;20210;-75
2022/08/17 08:50:13;;;;;;;5.07;4.68;;;;;;;;;;4965436;28;20261;-73
2022/08/17 08:52:50;;;;;;;5.88;5.20;;;;;;;;;;4967123;28;20199;-70
2022/08/17 08:55:22;;;;;;;5.22;4.82;;;;;;;;;;4961599;28;20280;-70
2022/08/17 08:57:53;;;;;;;5.00;4.70;;;;;;;;;;4964769;28;20695;-69
2022/08/17 09:00:21;;;;;;;5.55;5.10;;;;;;;;;;4967263;28;20206;-70
2022/08/17 09:03:06;;;;;;;5.40;5.00;;;;;;;;;;4967383;28;20233;-70
2022/08/17 09:05:38;;;;;;;5.90;5.40;;;;;;;;;;4965315;28;20222;-69
2022/08/17 09:08:11;;;;;;;5.80;5.25;;;;;;;;;;4967103;28;20261;-67
2022/08/17 09:10:45;;;;;;;5.47;5.18;;;;;;;;;;4967124;28;20218;-72
2022/08/17 09:13:17;;;;;;;5.85;5.47;;;;;;;;;;4966726;28;20316;-69
2022/08/17 09:15:46;;;;;;;5.75;5.25;;;;;;;;;;4966125;28;20206;-71
2022/08/17 09:18:16;;;;;;;5.80;5.28;;;;;;;;;;4970132;28;20230;-70
2022/08/17 09:20:49;;;;;;;5.30;4.90;;;;;;;;;;4971054;28;20242;-70
2022/08/17 09:23:20;;;;;;;6.05;5.55;;;;;;;;;;4969595;28;20230;-70
2022/08/17 09:25:49;;;;;;;5.78;5.25;;;;;;;;;;4970623;28;20210;-70
2022/08/17 09:28:20;;;;;;;6.35;5.68;;;;;;;;;;4970369;28;20754;-70
2022/08/17 09:30:48;;;;;;;5.40;5.00;;;;;;;;;;4970135;28;20586;-70
2022/08/17 09:33:18;;;;;;;6.05;5.55;;;;;;;;;;4970613;28;20660;-70
2022/08/17 09:35:48;;;;;;;5.32;4.93;;;;;;;;;;4971929;28;20210;-70
2022/08/17 09:38:19;;;;;;;5.55;5.05;;;;;;;;;;4969947;28;20672;-70
2022/08/17 09:40:49;;;;;;;6.10;5.38;;;;;;;;;;4969988;28;20715;-70
2022/08/17 09:43:21;;;;;;;7.82;5.50;;;;;;;;;;4970372;28;20233;-69
2022/08/17 09:45:49;;;;;;;8.65;5.90;;;;;;;;;;4970235;28;20206;-70
2022/08/17 09:48:19;;;;;;;6.15;5.55;;;;;;;;;;4967378;28;20210;-70
2022/08/17 09:50:51;;;;;;;7.25;6.55;;;;;;;;;;4969569;28;20202;-69
2022/08/17 09:53:18;;;;;;;5.75;5.35;;;;;;;;;;4970308;28;20203;-70
2022/08/17 09:56:05;;;;;;;6.03;5.63;;;;;;;;;;4970148;28;20210;-70
2022/08/17 09:58:39;;;;;;;5.90;5.40;;;;;;;;;;4969809;28;20297;-70
2022/08/17 10:01:12;;;;;;;5.97;5.38;;;;;;;;;;4969764;28;20743;-70
2022/08/17 10:03:49;;;;;;;5.20;4.80;;;;;;;;;;4970415;28;20280;-70
2022/08/17 10:06:18;;;;;;;6.68;6.03;;;;;;;;;;4969194;28;20238;-70
2022/08/17 10:08:51;;;;;;;6.60;6.00;;;;;;;;;;4969726;28;20209;-70
2022/08/17 10:12:14;;;;;;;5.70;5.20;;;;;;;;;;4967635;28;20280;-70
2022/08/17 10:14:19;;;;;;;6.00;5.00;;;;;;;;;;4969015;28;20221;-71
2022/08/17 10:16:52;;;;;;;5.47;5.07;;;;;;;;;;4968701;28;20226;-67
2022/08/17 10:19:25;;;;;;;10.52;5.03;;;;;;;;;;4970304;28;20242;-67
2022/08/17 10:27:29;;;;;;;5.45;5.00;;;;;;;;;;4967850;28;20245;-67
2022/08/17 10:29:59;;;;;;;5.43;5.05;;;;;;;;;;4969317;28;20210;-69
2022/08/17 10:32:31;;;;;;;4.97;4.68;;;;;;;;;;4966938;28;20625;-68
2022/08/17 10:35:16;;;;;;;5.80;5.40;;;;;;;;;;4966788;28;21018;-70
2022/08/17 10:37:58;;;;;;;5.43;4.95;;;;;;;;;;4966469;28;20237;-68
2022/08/17 10:40:31;;;;;;;4.82;4.53;;;;;;;;;;4970203;28;20273;-70
2022/08/17 10:42:59;;;;;;;4.35;4.07;;;;;;;;;;4964696;28;20230;-69
2022/08/17 10:45:29;;;;;;;5.07;4.78;;;;;;;;;;4965703;28;20233;-69
2022/08/17 10:48:00;;;;;;;5.63;5.32;;;;;;;;;;4969049;28;20218;-69
2022/08/17 10:50:48;;;;;;;5.38;4.93;;;;;;;;;;4967915;28;20214;-73
2022/08/17 10:53:30;;;;;;;6.22;5.70;;;;;;;;;;4968322;28;20203;-71
2022/08/17 10:56:12;;;;;;;4.70;4.30;;;;;;;;;;4967936;28;20214;-71
2022/08/17 10:58:45;;;;;;;6.07;4.72;;;;;;;;;;4968664;28;20690;-67
2022/08/17 11:01:14;;;;;;;11.35;7.80;;;;;;;;;;4967958;28;20207;-68
2022/08/17 11:03:51;;;;;;;17.95;12.27;;;;;;;;;;4968278;28;20222;-66
2022/08/17 11:06:21;;;;;;;6.68;5.68;;;;;;;;;;4968520;28;20683;-71
2022/08/17 11:09:13;;;;;;;12.43;7.80;;;;;;;;;;4966988;28;20257;-69
2022/08/17 11:11:46;;;;;;;6.03;5.45;;;;;;;;;;4967839;28;20241;-69
2022/08/17 11:14:30;;;;;;;11.43;7.80;;;;;;;;;;4969300;28;20305;-72
2022/08/17 11:17:10;;;;;;;8.43;7.13;;;;;;;;;;4969336;28;20230;-67
2022/08/17 11:19:57;;;;;;;5.88;5.00;;;;;;;;;;4967442;28;20252;-68
2022/08/17 11:22:43;;;;;;;6.95;5.07;;;;;;;;;;4965730;28;20214;-68
2022/08/17 11:25:14;;;;;;;4.80;4.50;;;;;;;;;;4964639;28;20214;-68
2022/08/17 11:27:41;;;;;;;5.30;4.90;;;;;;;;;;4969052;28;20221;-72
2022/08/17 11:30:11;;;;;;;4.95;4.60;;;;;;;;;;4968125;28;20233;-66
2022/08/17 11:32:41;;;;;;;7.22;4.45;;;;;;;;;;4968570;28;20286;-73
2022/08/17 11:35:11;;;;;;;7.25;4.57;;;;;;;;;;4967403;28;20242;-71
2022/08/17 11:37:57;;;;;;;4.32;4.03;;;;;;;;;;4962123;28;20226;-72
2022/08/17 11:40:34;;;;;;;3.92;3.72;;;;;;;;;;4964793;28;20214;-70
2022/08/17 11:43:22;;;;;;;6.63;4.75;;;;;;;;;;4968218;28;20237;-72
2022/08/17 11:46:02;;;;;;;4.07;3.78;;;;;;;;;;4951557;28;20626;-69
2022/08/17 11:54:10;;;;;;;3.92;3.63;;;;;;;;;;4957296;28;20580;-72
2022/08/17 11:56:40;;;;;;;4.05;3.75;;;;;;;;;;4966351;28;20280;-71
2022/08/17 11:59:35;;;;;;;3.95;3.70;;;;;;;;;;4968186;28;20214;-72
2022/08/17 12:02:02;;;;;;;3.72;3.53;;;;;;;;;;4922637;28;20661;-71
2022/08/17 12:04:32;;;;;;;3.20;3.10;;;;;;;;;;4962780;28;20723;-72
2022/08/17 12:07:01;;;;;;;3.70;3.33;;;;;;;;;;4963708;28;20570;-72
2022/08/17 12:09:30;;;;;;;3.47;3.28;;;;;;;;;;4967266;28;20669;-71
2022/08/17 12:11:58;;;;;;;3.88;3.58;;;;;;;;;;4968041;28;20250;-72
2022/08/17 12:14:27;;;;;;;3.38;3.17;;;;;;;;;;4968101;28;20207;-72
2022/08/17 12:17:05;;;;;;;3.40;3.20;;;;;;;;;;4967870;28;20262;-71
2022/08/17 12:19:34;;;;;;;5.15;2.80;;;;;;;;;;4968438;28;20356;-69
2022/08/17 12:22:04;;;;;;;3.17;2.97;;;;;;;;;;4968383;28;20269;-70
2022/08/17 12:24:37;;;;;;;4.50;3.20;;;;;;;;;;4968297;28;20230;-70
2022/08/17 12:27:06;;;;;;;3.03;2.88;;;;;;;;;;4968195;28;20257;-70
2022/08/17 12:29:33;;;;;;;3.40;3.20;;;;;;;;;;4968240;28;20221;-70
2022/08/17 12:32:02;;;;;;;3.17;3.08;;;;;;;;;;4967960;28;20284;-69
2022/08/17 12:34:34;;;;;;;3.30;3.20;;;;;;;;;;4966975;28;20982;-70
2022/08/17 12:37:05;;;;;;;3.60;3.30;;;;;;;;;;4967556;28;20214;-69
2022/08/17 12:39:32;;;;;;;3.47;3.05;;;;;;;;;;4967496;28;20261;-69
2022/08/17 12:42:00;;;;;;;3.58;3.38;;;;;;;;;;4968838;28;20207;-70
2022/08/17 12:44:29;;;;;;;3.60;3.50;;;;;;;;;;4969159;28;20237;-70
2022/08/17 12:46:59;;;;;;;3.28;3.17;;;;;;;;;;4978819;28;20208;-70
2022/08/17 12:49:29;;;;;;;5.07;3.03;;;;;;;;;;4972024;28;20221;-70
2022/08/17 12:52:01;;;;;;;3.15;3.05;;;;;;;;;;4966824;28;20356;-70
2022/08/17 12:54:33;;;;;;;3.20;3.10;;;;;;;;;;4971831;28;20214;-70
2022/08/17 12:57:02;;;;;;;3.03;2.92;;;;;;;;;;4972339;28;20211;-70
2022/08/17 12:59:31;;;;;;;2.60;2.53;;;;;;;;;;4982167;28;20210;-70
2022/08/17 13:01:59;;;;;;;2.80;2.70;;;;;;;;;;4991812;28;20217;-70
2022/08/17 13:04:27;;;;;;;3.10;2.90;;;;;;;;;;4973356;28;20230;-70
2022/08/17 13:06:54;;;;;;;2.63;2.53;;;;;;;;;;4971773;28;20584;-70
2022/08/17 13:09:23;;;;;;;3.33;3.13;;;;;;;;;;4971202;28;20281;-71
2022/08/17 13:11:53;;;;;;;2.72;2.63;;;;;;;;;;4971714;28;20214;-70
2022/08/17 13:14:21;;;;;;;2.70;2.55;;;;;;;;;;4971813;28;20325;-70
2022/08/17 13:16:49;;;;;;;2.90;2.80;;;;;;;;;;4970906;28;20242;-70
2022/08/17 13:19:20;;;;;;;2.60;2.60;;;;;;;;;;4961951;28;20723;-71
2022/08/17 13:21:48;;;;;;;2.80;2.70;;;;;;;;;;4971435;28;20720;-72
2022/08/17 13:24:18;;;;;;;2.40;2.40;;;;;;;;;;4970612;28;20230;-71
2022/08/17 13:26:47;;;;;;;3.00;2.90;;;;;;;;;;4971201;28;20305;-71
2022/08/17 13:29:22;;;;;;;2.42;2.35;;;;;;;;;;4971085;28;20692;-73
2022/08/17 13:31:50;;;;;;;2.17;2.17;;;;;;;;;;4970648;28;20641;-71
2022/08/17 13:34:19;;;;;;;3.30;3.10;;;;;;;;;;4970524;28;20206;-70
2022/08/17 13:36:47;;;;;;;2.83;2.72;;;;;;;;;;4971001;28;20217;-72
2022/08/17 13:39:15;;;;;;;2.80;2.70;;;;;;;;;;4970450;28;20210;-71
2022/08/17 13:41:42;;;;;;;2.80;2.70;;;;;;;;;;4970473;28;20721;-70
2022/08/17 13:44:28;;;;;;;2.50;2.50;;;;;;;;;;4970636;28;20230;-71
2022/08/17 13:46:58;;;;;;;2.90;2.70;;;;;;;;;;4970583;28;20217;-71
2022/08/17 13:49:25;;;;;;;2.95;2.75;;;;;;;;;;4970235;28;20590;-71
2022/08/17 13:51:52;;;;;;;2.92;2.83;;;;;;;;;;4970767;28;20235;-70
2022/08/17 13:54:23;;;;;;;2.90;2.80;;;;;;;;;;4970685;28;20213;-69
2022/08/17 13:56:59;;;;;;;4.53;2.72;;;;;;;;;;4970202;28;20532;-72
2022/08/17 13:59:28;;;;;;;2.90;2.70;;;;;;;;;;4970052;28;20336;-70
2022/08/17 14:01:56;;;;;;;2.75;2.65;;;;;;;;;;4969722;28;20217;-71
2022/08/17 14:04:26;;;;;;;2.58;2.50;;;;;;;;;;4970446;28;20780;-66
2022/08/17 14:06:54;;;;;;;2.65;2.55;;;;;;;;;;4969779;28;20761;-67
2022/08/17 14:09:23;;;;;;;2.53;2.42;;;;;;;;;;4970036;28;20225;-70
2022/08/17 14:11:51;;;;;;;2.75;2.58;;;;;;;;;;4970034;28;20701;-72
2022/08/17 14:14:18;;;;;;;2.90;2.80;;;;;;;;;;4969742;28;20202;-73
2022/08/17 14:16:45;;;;;;;2.83;2.72;;;;;;;;;;4969339;28;20591;-72
2022/08/17 14:19:14;;;;;;;4.18;2.63;;;;;;;;;;4967745;28;20246;-73
2022/08/17 14:21:42;;;;;;;2.65;2.55;;;;;;;;;;4970303;28;20297;-72
2022/08/17 14:24:10;;;;;;;2.92;2.83;;;;;;;;;;4970132;28;20233;-72
2022/08/17 14:26:37;;;;;;;2.35;2.28;;;;;;;;;;4969875;28;20668;-72
2022/08/17 14:29:06;;;;;;;2.63;2.53;;;;;;;;;;4970734;28;20214;-72
2022/08/17 14:31:33;;;;;;;2.50;2.40;;;;;;;;;;4970929;28;20444;-73
2022/08/17 14:34:00;;;;;;;2.47;2.38;;;;;;;;;;4970443;28;20222;-72
2022/08/17 14:36:30;;;;;;;2.63;2.42;;;;;;;;;;4970568;28;20276;-72
2022/08/17 14:38:57;;;;;;;2.90;2.80;;;;;;;;;;4970447;28;20670;-72
2022/08/17 14:41:24;;;;;;;2.90;2.80;;;;;;;;;;4969961;28;20665;-72
2022/08/17 14:43:52;;;;;;;2.80;2.70;;;;;;;;;;4970457;28;20728;-71
2022/08/17 14:46:19;;;;;;;2.90;2.72;;;;;;;;;;4970259;28;20212;-71
2022/08/17 14:48:46;;;;;;;3.30;3.10;;;;;;;;;;4969692;28;20217;-72
2022/08/17 14:51:13;;;;;;;3.13;3.03;;;;;;;;;;4967904;28;20206;-70
2022/08/17 14:53:44;;;;;;;3.35;3.17;;;;;;;;;;4968189;28;20217;-71
2022/08/17 14:56:12;;;;;;;2.97;2.72;;;;;;;;;;4969378;28;20313;-72
2022/08/17 14:58:41;;;;;;;3.55;3.35;;;;;;;;;;4969177;28;20215;-71
2022/08/17 15:01:08;;;;;;;2.95;2.92;;;;;;;;;;4969834;28;20269;-73
2022/08/17 15:03:35;;;;;;;2.90;2.80;;;;;;;;;;4968939;28;20221;-72
2022/08/17 15:06:02;;;;;;;3.20;3.10;;;;;;;;;;4968959;28;20221;-72
2022/08/17 15:08:29;;;;;;;3.80;3.30;;;;;;;;;;4968335;28;20203;-71
2022/08/17 15:10:58;;;;;;;3.45;3.25;;;;;;;;;;4968862;28;20264;-72
2022/08/17 15:13:26;;;;;;;3.20;2.90;;;;;;;;;;4967607;28;20752;-71
2022/08/17 15:15:53;;;;;;;2.90;2.80;;;;;;;;;;4968811;28;20226;-72
2022/08/17 15:18:21;;;;;;;3.40;3.20;;;;;;;;;;4966612;28;20708;-72
2022/08/17 15:20:48;;;;;;;3.13;2.78;;;;;;;;;;4968951;28;20242;-71
2022/08/17 15:23:17;;;;;;;3.10;3.00;;;;;;;;;;4968648;28;20217;-71
2022/08/17 15:25:45;;;;;;;3.00;2.90;;;;;;;;;;4969116;28;20354;-72
2022/08/17 15:28:14;;;;;;;3.05;2.90;;;;;;;;;;4968778;28;20211;-72
2022/08/17 15:30:43;;;;;;;3.03;2.92;;;;;;;;;;4969218;28;20228;-71